Irvington, VA

12:37 AM EST on March 04, 2015 (GMT -0500)
Sanders Cove | Change Station
CLOSE
Current Station
Personal Weather Station
Location: White Stone, VA
Elevation: 49 ft
Nearby Weather Stations

Elev 49 ft 37.64 °N, 76.42 °W | Updated 7 seconds ago

Overcast
Overcast
36.3 °F
Feels Like 30 °F
N
9.0
Wind Variable Wind from West
Gusts 10.4 mph

Today
High -- | Low -- °F
--% Chance of Precip.
Yesterday
High -- | Low -- °F
Precip. -- in
6:33 AM 6:02 PM
Waxing Gibbous, 98% visible
Pressure 30.00 in
Visibility 7.0 miles
Clouds Overcast 600 ft
Windchill 30 °F
Dew Point 35 °F
Humidity 94%
Rainfall 0.00 in
Snow Depth Not available.
UV 0 out of 12
Pollen 5.00 out of 12
Air Quality Not available.
Flu Activity Not available.
METAR KFYJ 040515Z AUTO 19005KT 7SM OVC006 04/03 A3000 RMK AO2 T00420027

More Conditions Fewer Conditions

Pressure 30.00 in
Visibility 7.0 miles
Clouds Overcast 600 ft
Windchill 30 °F
Dew Point 35 °F
Humidity 94%
Rainfall 0.00 in
Snow Depth Not available.
UV 0 out of 12
Pollen 5.00 out of 12
Air Quality Not available.
Flu Activity Not available.
METAR KFYJ 040515Z AUTO 19005KT 7SM OVC006 04/03 A3000 RMK AO2 T00420027

More Conditions Fewer Conditions

10-Day Weather Forecast

Almanac

Astronomy

Mar. 04, 2015 Rise Set
Actual Time
Civil Twilight
Nautical Twilight
Astronomical Twilight
Moon
Length of Visible Light
Length of Day
Tomorrow will be .
, % of the Moon is Illuminated

Today's Extremes

State Highs State Lows

Community

WunderPhotos

Upload Photos

1,802,400 photos uploaded!

WunderBlogs® & News

Nearby

Air Quality

  Air Quality AQ Index Pollutant
Not available.

Snow Depth

Station Depth Elevation

Earthquake Activity

City Distance Mag. Time & Date
Minimum magnitude displayed is 2.5.

Coastal Water Temperatures

Place Temperature

Nearby Weather Stations